Time;durP1;ratioP1;P1;durP2;ratioP2;P2;SDS_P1;SDS_P2;PMS_P1;PMS_P2;Temp;Humidity;BMP_temperature;BMP_pressure;BME280_temperature;BME280_humidity;BME280_pressure;Samples;Min_cycle;Max_cycle;Signal;HPM_P1;HPM_P2
2022/11/28 00:00:59;;;;;;;49.93;26.93;;;3.30;99.90;;;;;;10491396;28;20232;-82
2022/11/28 00:06:20;;;;;;;59.67;29.57;;;3.30;99.90;;;;;;10504975;28;20538;-81
2022/11/28 00:11:44;;;;;;;53.83;27.67;;;3.40;99.90;;;;;;10505162;28;20199;-81
2022/11/28 00:17:05;;;;;;;55.93;30.47;;;3.40;99.90;;;;;;10518447;28;20239;-82
2022/11/28 00:22:28;;;;;;;69.20;34.73;;;3.40;99.90;;;;;;10505245;28;20224;-80
2022/11/28 00:27:49;;;;;;;51.80;28.67;;;3.40;99.90;;;;;;10520264;28;20497;-81
2022/11/28 00:33:10;;;;;;;51.00;25.90;;;3.40;99.90;;;;;;10519462;28;20216;-80
2022/11/28 00:38:31;;;;;;;52.87;27.03;;;3.40;99.90;;;;;;10519778;28;20221;-80
2022/11/28 00:43:52;;;;;;;55.50;26.67;;;3.40;99.90;;;;;;10526434;28;20552;-82
2022/11/28 00:49:13;;;;;;;56.33;27.67;;;3.30;99.90;;;;;;10541481;28;20199;-82
2022/11/28 00:54:34;;;;;;;60.77;28.60;;;3.30;99.90;;;;;;10504519;28;20238;-81
2022/11/28 00:59:55;;;;;;;56.03;28.20;;;3.30;99.90;;;;;;10504116;28;20220;-81
2022/11/28 01:05:16;;;;;;;60.93;28.70;;;3.40;99.90;;;;;;10504290;28;20439;-81
2022/11/28 01:10:41;;;;;;;53.27;26.87;;;3.40;99.90;;;;;;10504085;28;20250;-81
2022/11/28 01:16:02;;;;;;;57.70;30.90;;;3.30;99.90;;;;;;10507468;28;20236;-81
2022/11/28 01:21:24;;;;;;;59.43;32.27;;;3.30;99.90;;;;;;10525738;28;20226;-81
2022/11/28 01:26:45;;;;;;;55.33;28.17;;;3.20;99.90;;;;;;10511491;28;20189;-81
2022/11/28 01:32:06;;;;;;;49.30;25.47;;;3.30;99.90;;;;;;10525042;28;20206;-81
2022/11/28 01:37:28;;;;;;;51.43;26.70;;;3.30;99.90;;;;;;10510791;28;20195;-81
2022/11/28 01:42:50;;;;;;;56.90;28.43;;;3.20;99.90;;;;;;10538063;28;20214;-81
2022/11/28 01:48:16;;;;;;;54.77;26.70;;;3.20;99.90;;;;;;10533410;28;20192;-81
2022/11/28 01:53:44;;;;;;;55.80;27.47;;;3.20;99.90;;;;;;10524742;28;20192;-81
2022/11/28 01:59:10;;;;;;;51.57;27.13;;;3.20;99.90;;;;;;10509991;28;20201;-81
2022/11/28 02:04:33;;;;;;;51.33;25.67;;;3.10;99.90;;;;;;10509922;28;20204;-80
2022/11/28 02:09:54;;;;;;;53.90;27.13;;;3.10;99.90;;;;;;10510116;28;20202;-80
2022/11/28 02:15:40;;;;;;;46.33;24.37;;;3.10;99.90;;;;;;10509184;28;20195;-81
2022/11/28 02:21:22;;;;;;;47.73;26.10;;;3.10;99.90;;;;;;10509252;28;20294;-81
2022/11/28 02:26:55;;;;;;;48.03;24.60;;;3.10;99.90;;;;;;10508421;28;20191;-79
2022/11/28 02:32:43;;;;;;;45.97;23.07;;;3.10;99.90;;;;;;10508792;28;20199;-79
2022/11/28 02:38:35;;;;;;;48.10;23.60;;;3.10;99.90;;;;;;10494281;28;20200;-79
2022/11/28 02:44:11;;;;;;;47.93;23.47;;;3.20;99.90;;;;;;10549975;28;20198;-79
2022/11/28 02:49:53;;;;;;;47.93;22.40;;;3.00;99.90;;;;;;10513217;28;20191;-81
2022/11/28 02:55:15;;;;;;;46.37;23.27;;;3.10;99.90;;;;;;10522007;28;20368;-81
2022/11/28 03:00:38;;;;;;;48.07;24.13;;;3.10;99.90;;;;;;10507562;28;20227;-80
2022/11/28 03:06:16;;;;;;;47.43;24.70;;;3.10;99.90;;;;;;10507443;28;20196;-80
2022/11/28 03:12:15;;;;;;;44.30;23.13;;;3.00;99.90;;;;;;10507093;28;20490;-81
2022/11/28 03:17:58;;;;;;;42.67;22.03;;;3.00;99.90;;;;;;10520860;28;20236;-81
2022/11/28 03:23:33;;;;;;;43.47;23.40;;;3.20;99.90;;;;;;10507114;28;20219;-81
2022/11/28 03:29:00;;;;;;;44.53;23.07;;;3.10;99.90;;;;;;10506242;28;20230;-80
2022/11/28 03:34:29;;;;;;;35.53;20.43;;;3.00;99.90;;;;;;10520775;28;20203;-81
2022/11/28 03:39:58;;;;;;;44.83;22.47;;;2.90;99.90;;;;;;10520041;28;20228;-80
2022/11/28 03:45:31;;;;;;;40.07;22.77;;;2.80;99.90;;;;;;10559433;27;20266;-81
2022/11/28 03:50:59;;;;;;;40.50;22.40;;;2.80;99.90;;;;;;10506426;28;20202;-81
2022/11/28 03:56:41;;;;;;;43.80;22.73;;;2.70;99.90;;;;;;10519727;28;20191;-81
2022/11/28 04:02:05;;;;;;;46.67;23.47;;;2.70;99.90;;;;;;10491108;28;20231;-80
2022/11/28 04:07:31;;;;;;;44.27;23.37;;;2.60;99.90;;;;;;10505188;28;20517;-81
2022/11/28 04:13:13;;;;;;;54.30;30.13;;;2.60;99.90;;;;;;10504688;28;20199;-81
2022/11/28 04:18:51;;;;;;;47.17;28.47;;;2.60;99.90;;;;;;10518986;28;20433;-81
2022/11/28 04:24:20;;;;;;;47.07;29.23;;;2.60;99.90;;;;;;10504740;28;20203;-80
2022/11/28 04:29:50;;;;;;;47.57;28.33;;;2.70;99.90;;;;;;10519320;28;20194;-81
2022/11/28 04:35:29;;;;;;;40.50;23.50;;;2.70;99.90;;;;;;10504992;28;20549;-81
2022/11/28 04:40:55;;;;;;;43.87;24.07;;;2.60;99.90;;;;;;10476520;28;20228;-81
2022/11/28 04:46:42;;;;;;;37.37;21.10;;;2.60;99.90;;;;;;10479365;28;20272;-81
2022/11/28 04:52:06;;;;;;;36.57;20.57;;;2.50;99.90;;;;;;10511177;28;20199;-81
2022/11/28 04:57:41;;;;;;;40.47;22.83;;;2.50;99.90;;;;;;10498365;28;20386;-82
2022/11/28 05:03:04;;;;;;;32.37;19.07;;;2.50;99.90;;;;;;10526305;28;20422;-81
2022/11/28 05:08:25;;;;;;;37.30;20.27;;;2.50;99.90;;;;;;10525819;28;20267;-82
2022/11/28 05:13:47;;;;;;;32.50;19.33;;;2.50;99.90;;;;;;10527169;28;20194;-81
2022/11/28 05:19:07;;;;;;;36.07;19.27;;;2.30;99.90;;;;;;10525296;28;20243;-81
2022/11/28 05:24:29;;;;;;;35.50;20.70;;;2.40;99.90;;;;;;10497275;28;20210;-82
2022/11/28 05:29:52;;;;;;;37.20;20.50;;;2.30;99.90;;;;;;10525451;28;20282;-81
2022/11/28 05:35:13;;;;;;;38.23;21.10;;;2.30;99.90;;;;;;10526056;28;20188;-81
2022/11/28 05:40:34;;;;;;;37.60;20.67;;;2.30;99.90;;;;;;10524729;28;20231;-81
2022/11/28 05:45:56;;;;;;;39.07;23.00;;;2.30;99.90;;;;;;10549319;28;20190;-82
2022/11/28 05:51:17;;;;;;;45.47;22.27;;;2.30;99.90;;;;;;10530135;28;20195;-81
2022/11/28 05:56:38;;;;;;;34.37;20.27;;;2.40;99.90;;;;;;10510328;28;20198;-82
2022/11/28 06:02:02;;;;;;;38.93;23.53;;;2.30;99.90;;;;;;10509029;28;20231;-82
2022/11/28 06:07:23;;;;;;;37.80;24.10;;;2.20;99.90;;;;;;10509632;28;20400;-80
2022/11/28 06:12:44;;;;;;;39.97;20.53;;;2.10;99.90;;;;;;10509435;28;20394;-81
2022/11/28 06:18:06;;;;;;;36.30;19.17;;;2.00;99.90;;;;;;10508726;28;20310;-81
2022/11/28 06:23:27;;;;;;;49.93;27.03;;;2.00;99.90;;;;;;10494640;28;20237;-82
2022/11/28 06:28:48;;;;;;;39.97;20.50;;;2.10;99.90;;;;;;10508774;28;20261;-81
2022/11/28 06:34:11;;;;;;;48.60;28.20;;;2.00;99.90;;;;;;10508467;28;20209;-80
2022/11/28 06:39:33;;;;;;;54.47;31.63;;;2.10;99.90;;;;;;10480798;28;20228;-81
2022/11/28 06:44:54;;;;;;;40.53;20.57;;;2.20;99.90;;;;;;10538791;28;20367;-81
2022/11/28 06:50:15;;;;;;;40.70;25.50;;;2.20;99.90;;;;;;10527474;28;20421;-81
2022/11/28 06:55:37;;;;;;;58.63;34.57;;;2.20;99.90;;;;;;10521869;28;20195;-81
2022/11/28 07:01:08;;;;;;;59.50;32.90;;;2.30;99.90;;;;;;10508251;28;20298;-82
2022/11/28 07:06:30;;;;;;;44.13;26.40;;;2.10;99.90;;;;;;10506855;28;20199;-82
2022/11/28 07:11:51;;;;;;;42.50;24.63;;;2.00;99.90;;;;;;10521010;28;20388;-82
2022/11/28 07:17:12;;;;;;;50.67;27.03;;;2.10;99.90;;;;;;10492131;28;20547;-82
2022/11/28 07:22:33;;;;;;;50.23;26.57;;;2.20;99.90;;;;;;10520497;28;20222;-82
2022/11/28 07:27:54;;;;;;;50.63;26.10;;;2.20;99.90;;;;;;10520030;28;20499;-82
2022/11/28 07:33:16;;;;;;;54.97;29.40;;;2.30;99.90;;;;;;10505870;28;20187;-82
2022/11/28 07:38:37;;;;;;;54.70;28.07;;;2.20;99.90;;;;;;10506317;28;20210;-82
2022/11/28 07:44:00;;;;;;;61.23;29.80;;;2.30;99.90;;;;;;10542325;28;20532;-81
2022/11/28 07:49:21;;;;;;;67.80;33.20;;;2.20;99.90;;;;;;10518342;28;20205;-82
2022/11/28 07:54:43;;;;;;;52.10;27.13;;;2.20;99.90;;;;;;10505320;28;20240;-82
2022/11/28 08:00:05;;;;;;;54.73;26.80;;;2.20;99.90;;;;;;10519316;28;20223;-82
2022/11/28 08:05:32;;;;;;;234.83;52.27;;;2.40;99.90;;;;;;10518972;28;20433;-83
2022/11/28 08:10:59;;;;;;;65.03;31.30;;;2.30;99.90;;;;;;10519190;28;20555;-83
2022/11/28 08:16:22;;;;;;;54.90;28.07;;;2.30;99.90;;;;;;10518602;28;20238;-82
2022/11/28 08:21:43;;;;;;;52.30;29.27;;;2.30;99.90;;;;;;10504834;28;20227;-82
2022/11/28 08:27:05;;;;;;;57.70;30.23;;;2.20;99.90;;;;;;10504556;28;20257;-83
2022/11/28 08:32:29;;;;;;;49.53;26.07;;;2.30;99.90;;;;;;10456144;28;20245;-83
2022/11/28 08:37:50;;;;;;;64.53;30.30;;;2.30;96.40;;;;;;10463987;28;20269;-81
2022/11/28 08:43:12;;;;;;;59.07;27.77;;;2.30;99.20;;;;;;10514897;28;20229;-81
2022/11/28 08:48:34;;;;;;;60.60;30.47;;;2.20;99.90;;;;;;10498122;28;20196;-80
2022/11/28 08:53:55;;;;;;;57.03;29.00;;;2.30;99.90;;;;;;10512887;28;20288;-79
2022/11/28 08:59:19;;;;;;;36.40;20.83;;;2.30;99.90;;;;;;10474456;28;20210;-80
2022/11/28 09:04:40;;;;;;;47.23;24.57;;;2.20;95.40;;;;;;10454481;28;20304;-80
2022/11/28 09:10:02;;;;;;;47.03;27.33;;;2.10;86.30;;;;;;10472317;28;20449;-80
2022/11/28 09:15:23;;;;;;;49.27;26.33;;;2.20;99.90;;;;;;10490447;28;20265;-79
2022/11/28 09:20:45;;;;;;;59.40;32.83;;;2.20;99.90;;;;;;10471511;28;20403;-80
2022/11/28 09:26:08;;;;;;;51.87;27.20;;;2.30;99.90;;;;;;10464035;28;20210;-79
2022/11/28 09:31:29;;;;;;;41.53;20.53;;;2.40;99.90;;;;;;10513389;28;20286;-82
2022/11/28 09:36:50;;;;;;;46.30;25.07;;;2.40;99.90;;;;;;10477789;28;20382;-79
2022/11/28 09:42:25;;;;;;;39.37;21.37;;;2.40;99.70;;;;;;10527905;28;20303;-84
2022/11/28 09:47:51;;;;;;;53.13;25.70;;;2.40;97.00;;;;;;10516474;28;20266;-79
2022/11/28 09:53:18;;;;;;;45.93;24.00;;;2.40;93.20;;;;;;10470621;28;20203;-81
2022/11/28 09:58:49;;;;;;;58.80;29.30;;;2.60;99.90;;;;;;10456767;28;20266;-79
2022/11/28 10:04:41;;;;;;;49.40;25.50;;;2.80;92.70;;;;;;10489261;28;20231;-79
2022/11/28 10:10:40;;;;;;;42.57;22.63;;;2.70;56.30;;;;;;10481357;28;20392;-81
2022/11/28 10:16:26;;;;;;;47.63;27.53;;;2.70;90.40;;;;;;10394055;28;20232;-81
2022/11/28 10:21:54;;;;;;;47.33;24.47;;;2.70;59.70;;;;;;10391048;28;20243;-79
2022/11/28 10:27:24;;;;;;;41.63;22.70;;;2.60;92.50;;;;;;10419132;28;20200;-85
2022/11/28 10:32:58;;;;;;;42.73;21.67;;;2.70;92.20;;;;;;10388976;28;20213;-85
2022/11/28 10:38:24;;;;;;;44.73;25.67;;;2.70;79.20;;;;;;10360694;28;20276;-80
2022/11/28 10:43:52;;;;;;;51.37;25.47;;;2.70;99.90;;;;;;10390010;28;20232;-80
2022/11/28 10:49:23;;;;;;;44.70;21.77;;;2.80;82.80;;;;;;10443838;28;20219;-80
2022/11/28 10:54:58;;;;;;;43.23;22.63;;;2.80;64.40;;;;;;10543469;28;20206;-79
2022/11/28 11:00:19;;;;;;;41.27;22.00;;;2.90;25.00;;;;;;10521802;28;20241;-83
2022/11/28 11:05:40;;;;;;;36.60;19.20;;;3.00;1.50;;;;;;10501284;28;20210;-83
2022/11/28 11:11:09;;;;;;;41.77;22.40;;;3.00;1.00;;;;;;10500359;28;20203;-85
2022/11/28 11:16:58;;;;;;;34.80;20.40;;;3.00;1.00;;;;;;10512372;28;20232;-81
2022/11/28 11:22:27;;;;;;;35.90;20.20;;;2.90;1.00;;;;;;10473180;28;20261;-85
2022/11/28 11:28:00;;;;;;;30.23;17.67;;;2.90;1.00;;;;;;10495684;28;20204;-82
2022/11/28 11:33:21;;;;;;;38.30;20.63;;;2.80;1.00;;;;;;10500839;28;20222;-80
2022/11/28 11:38:43;;;;;;;45.13;23.33;;;2.90;1.00;;;;;;10507656;28;20223;-85
2022/11/28 11:44:13;;;;;;;40.90;22.00;;;3.00;1.00;;;;;;10492332;28;20537;-81
2022/11/28 11:49:36;;;;;;;46.27;25.67;;;3.00;1.00;;;;;;10508087;28;20249;-81
2022/11/28 11:55:06;;;;;;;46.70;24.87;;;3.00;1.00;;;;;;10458205;28;20219;-81
2022/11/28 12:00:38;;;;;;;43.07;23.73;;;2.90;1.00;;;;;;10443399;28;20240;-81
2022/11/28 12:06:05;;;;;;;41.50;22.07;;;3.00;1.00;;;;;;10459017;28;20451;-79
2022/11/28 12:11:39;;;;;;;44.80;22.50;;;3.00;1.00;;;;;;10472023;28;20204;-78
2022/11/28 12:17:11;;;;;;;41.40;23.57;;;3.10;1.00;;;;;;10474503;28;20243;-82
2022/11/28 12:23:13;;;;;;;54.93;25.57;;;3.00;1.00;;;;;;10480678;28;20285;-84
2022/11/28 12:28:43;;;;;;;45.93;25.23;;;2.90;1.00;;;;;;10458404;28;20212;-78
2022/11/28 12:34:19;;;;;;;44.00;23.37;;;2.90;1.00;;;;;;10497290;28;20279;-80
2022/11/28 12:40:16;;;;;;;45.13;24.30;;;2.80;1.00;;;;;;10480791;28;20195;-84
2022/11/28 12:46:19;;;;;;;44.63;23.10;;;2.80;1.00;;;;;;10535372;28;20195;-79
2022/11/28 12:52:04;;;;;;;54.03;26.27;;;2.70;1.00;;;;;;10505896;28;20217;-79
2022/11/28 12:57:43;;;;;;;45.40;24.10;;;2.60;1.00;;;;;;10477923;28;20253;-81
2022/11/28 13:03:50;;;;;;;42.70;22.93;;;2.50;1.00;;;;;;10457176;28;20246;-81
2022/11/28 13:09:36;;;;;;;55.33;30.23;;;2.50;1.00;;;;;;10456676;28;20522;-79
2022/11/28 13:15:09;;;;;;;44.33;23.87;;;2.60;1.00;;;;;;10479029;28;20273;-82
2022/11/28 13:20:51;;;;;;;52.63;26.97;;;2.50;1.00;;;;;;10471765;28;20239;-82
2022/11/28 13:26:37;;;;;;;66.53;31.73;;;2.40;1.00;;;;;;10481105;28;20238;-80
2022/11/28 13:32:20;;;;;;;58.63;28.47;;;2.50;1.00;;;;;;10497133;28;20209;-81
2022/11/28 13:38:05;;;;;;;51.77;28.47;;;2.60;1.00;;;;;;10514945;28;20211;-76
2022/11/28 13:44:14;;;;;;;53.77;28.90;;;2.50;1.00;;;;;;10502410;28;20226;-81
2022/11/28 13:49:35;;;;;;;60.97;29.37;;;2.40;1.00;;;;;;10485325;28;20417;-80
2022/11/28 13:54:56;;;;;;;63.93;31.87;;;2.40;1.00;;;;;;10463640;28;20547;-81
2022/11/28 14:00:17;;;;;;;65.87;33.10;;;2.40;1.00;;;;;;10449539;28;20314;-84
2022/11/28 14:05:39;;;;;;;71.93;32.70;;;2.30;15.50;;;;;;10493720;28;20274;-79
2022/11/28 14:11:16;;;;;;;75.07;34.23;;;2.30;28.50;;;;;;10486466;28;20210;-82
2022/11/28 14:16:50;;;;;;;82.80;36.67;;;2.30;29.60;;;;;;10499782;28;20427;-84
2022/11/28 14:22:49;;;;;;;71.90;33.67;;;2.20;33.70;;;;;;10467807;28;20242;-80
2022/11/28 14:28:35;;;;;;;82.03;38.10;;;2.30;94.20;;;;;;10488188;28;20271;-81
2022/11/28 14:34:03;;;;;;;84.90;37.30;;;2.30;79.10;;;;;;10449012;28;20210;-82
2022/11/28 14:39:33;;;;;;;60.67;29.53;;;2.30;80.10;;;;;;10477015;28;20195;-82
2022/11/28 14:45:14;;;;;;;61.17;29.93;;;2.20;68.40;;;;;;10466984;28;20250;-76
2022/11/28 14:50:38;;;;;;;75.90;34.37;;;2.20;67.20;;;;;;10427816;28;20235;-78
2022/11/28 14:56:28;;;;;;;74.10;34.93;;;2.20;69.00;;;;;;10395917;28;20235;-79
2022/11/28 15:02:08;;;;;;;60.93;30.77;;;2.30;99.90;;;;;;10375856;28;20236;-81
2022/11/28 15:07:50;;;;;;;74.07;34.10;;;2.20;88.50;;;;;;10362428;28;20282;-85
2022/11/28 15:13:20;;;;;;;74.20;35.17;;;2.30;97.50;;;;;;10396135;28;20224;-84
2022/11/28 15:18:52;;;;;;;69.33;34.50;;;2.30;99.90;;;;;;10410781;28;20239;-83
2022/11/28 15:24:29;;;;;;;68.73;32.73;;;2.30;84.40;;;;;;10424299;28;20243;-84
2022/11/28 15:30:00;;;;;;;68.20;33.80;;;2.30;95.60;;;;;;10468478;28;20252;-80
2022/11/28 15:35:22;;;;;;;66.17;31.00;;;2.30;96.40;;;;;;10474972;28;20221;-79
2022/11/28 15:40:50;;;;;;;69.63;36.07;;;2.20;95.30;;;;;;10472590;28;20530;-79
2022/11/28 15:46:25;;;;;;;68.50;35.10;;;2.40;43.00;;;;;;10496547;28;20276;-81
2022/11/28 15:51:52;;;;;;;88.63;39.87;;;2.30;61.80;;;;;;10481026;28;20307;-80
2022/11/28 15:57:27;;;;;;;81.53;38.37;;;2.30;67.10;;;;;;10486338;28;20204;-79
2022/11/28 16:02:48;;;;;;;78.53;36.73;;;2.30;88.50;;;;;;10460186;28;20230;-84
2022/11/28 16:08:41;;;;;;;78.93;38.00;;;2.40;99.90;;;;;;10458007;28;20210;-80
2022/11/28 16:14:08;;;;;;;77.57;38.17;;;2.40;99.90;;;;;;10461600;28;20492;-80
2022/11/28 16:19:34;;;;;;;87.33;43.23;;;2.40;99.90;;;;;;10496688;28;20242;-79
2022/11/28 16:24:55;;;;;;;87.17;39.80;;;2.40;99.90;;;;;;10501263;28;20250;-80
2022/11/28 16:30:46;;;;;;;85.87;40.93;;;2.40;99.90;;;;;;10501410;28;20262;-80
2022/11/28 16:36:35;;;;;;;100.73;43.50;;;2.50;99.90;;;;;;10484080;28;20209;-80
2022/11/28 16:42:15;;;;;;;94.10;42.23;;;2.50;99.90;;;;;;10495734;28;20234;-81
2022/11/28 16:47:37;;;;;;;101.10;48.17;;;2.50;99.90;;;;;;10515235;28;20202;-80
2022/11/28 16:52:58;;;;;;;101.40;48.50;;;2.50;99.90;;;;;;10471556;28;20206;-81
2022/11/28 16:58:21;;;;;;;88.83;42.87;;;2.50;99.90;;;;;;10457290;28;20241;-80
2022/11/28 17:03:48;;;;;;;87.53;42.60;;;2.50;99.90;;;;;;10483939;28;20986;-80
2022/11/28 17:09:12;;;;;;;81.00;41.40;;;2.50;99.90;;;;;;10512185;28;20202;-80
2022/11/28 17:14:33;;;;;;;90.33;45.13;;;2.50;99.90;;;;;;10511013;28;20226;-80
2022/11/28 17:19:54;;;;;;;81.07;41.13;;;2.40;99.90;;;;;;10497475;28;20242;-80
2022/11/28 17:25:19;;;;;;;78.40;40.30;;;2.40;99.90;;;;;;10510514;28;20263;-79
2022/11/28 17:30:40;;;;;;;85.47;41.93;;;2.40;99.90;;;;;;10526606;28;20261;-81
2022/11/28 17:36:02;;;;;;;76.23;40.27;;;2.40;99.90;;;;;;10479549;28;20204;-80
2022/11/28 17:41:25;;;;;;;73.80;38.33;;;2.40;99.90;;;;;;10485737;28;20272;-81
2022/11/28 17:46:47;;;;;;;73.10;38.07;;;2.60;99.90;;;;;;10518947;28;20265;-81
2022/11/28 17:52:08;;;;;;;70.30;36.10;;;2.50;99.90;;;;;;10486697;28;20516;-81
2022/11/28 17:57:33;;;;;;;76.93;36.60;;;2.50;99.90;;;;;;10467895;28;20511;-82
2022/11/28 18:02:54;;;;;;;72.27;36.30;;;2.60;99.90;;;;;;10476850;28;20226;-81
2022/11/28 18:08:17;;;;;;;81.50;36.87;;;2.60;99.90;;;;;;10483639;28;20238;-80
2022/11/28 18:13:42;;;;;;;76.53;36.27;;;2.60;99.90;;;;;;10509380;28;20198;-80
2022/11/28 18:19:03;;;;;;;69.03;35.80;;;2.60;99.90;;;;;;10508558;28;20242;-80
2022/11/28 18:24:24;;;;;;;75.27;38.47;;;2.60;99.90;;;;;;10481556;28;20253;-80
2022/11/28 18:29:45;;;;;;;76.93;39.63;;;2.60;99.90;;;;;;10481755;28;20195;-80
2022/11/28 18:35:08;;;;;;;86.53;40.27;;;2.70;99.90;;;;;;10464923;28;20498;-80
2022/11/28 18:40:30;;;;;;;81.93;40.77;;;2.70;99.90;;;;;;10499841;28;20196;-80
2022/11/28 18:45:51;;;;;;;77.43;38.80;;;2.70;99.90;;;;;;10470265;28;20329;-81
2022/11/28 18:51:15;;;;;;;80.17;37.60;;;2.70;99.90;;;;;;10476425;28;20281;-81
2022/11/28 18:56:36;;;;;;;78.57;39.10;;;2.80;99.90;;;;;;10502394;28;20203;-81
2022/11/28 19:01:58;;;;;;;74.17;36.97;;;2.80;99.90;;;;;;10507609;28;20513;-81
2022/11/28 19:07:20;;;;;;;88.73;40.53;;;2.80;99.90;;;;;;10479162;28;20274;-83
2022/11/28 19:12:41;;;;;;;79.53;37.90;;;2.90;93.00;;;;;;10454699;28;20479;-78
2022/11/28 19:18:02;;;;;;;82.47;39.33;;;2.80;95.40;;;;;;10492914;28;20254;-80
2022/11/28 19:23:24;;;;;;;82.23;40.53;;;2.70;99.90;;;;;;10497655;28;20223;-81
2022/11/28 19:28:46;;;;;;;79.47;40.70;;;2.80;99.90;;;;;;10465696;28;20210;-81
2022/11/28 19:34:16;;;;;;;79.47;37.80;;;2.80;99.90;;;;;;10476791;28;20203;-81
2022/11/28 19:39:38;;;;;;;74.83;35.63;;;2.80;99.90;;;;;;10481298;28;20211;-80
2022/11/28 19:44:59;;;;;;;66.90;33.80;;;2.80;99.90;;;;;;10504740;28;20248;-79
2022/11/28 19:50:20;;;;;;;80.57;36.93;;;2.80;94.00;;;;;;10496721;28;20196;-80
2022/11/28 19:55:43;;;;;;;69.53;35.07;;;2.90;92.40;;;;;;10450624;28;20433;-79
2022/11/28 20:01:05;;;;;;;68.70;34.93;;;2.90;84.00;;;;;;10464595;28;20241;-79
2022/11/28 20:06:30;;;;;;;68.23;33.93;;;2.80;78.70;;;;;;10495139;28;20253;-79
2022/11/28 20:11:51;;;;;;;71.80;34.33;;;2.80;94.00;;;;;;10519654;28;20198;-78
2022/11/28 20:17:12;;;;;;;68.93;33.07;;;2.80;92.20;;;;;;10469440;28;20238;-81
2022/11/28 20:22:37;;;;;;;72.27;35.90;;;2.80;49.90;;;;;;10542795;28;20226;-83
2022/11/28 20:27:58;;;;;;;71.80;36.10;;;2.80;48.40;;;;;;10487593;28;20195;-81
2022/11/28 20:33:20;;;;;;;71.57;37.63;;;2.80;73.70;;;;;;10482109;28;20221;-82
2022/11/28 20:38:41;;;;;;;71.53;35.53;;;2.80;93.30;;;;;;10518825;28;20223;-83
2022/11/28 20:44:02;;;;;;;78.17;37.47;;;2.80;99.90;;;;;;10535973;28;20218;-81
2022/11/28 20:49:24;;;;;;;77.40;37.87;;;2.80;92.30;;;;;;10501543;28;20202;-81
2022/11/28 20:54:45;;;;;;;72.00;36.20;;;2.90;84.20;;;;;;10462583;28;20421;-82
2022/11/28 21:00:07;;;;;;;70.07;34.63;;;2.90;80.80;;;;;;10477079;28;20196;-81
2022/11/28 21:05:29;;;;;;;78.20;36.97;;;2.90;54.50;;;;;;10462221;28;20244;-81
2022/11/28 21:10:50;;;;;;;75.23;37.20;;;2.90;50.00;;;;;;10464084;28;20196;-81
2022/11/28 21:16:16;;;;;;;75.27;37.60;;;2.80;83.00;;;;;;10503863;28;20229;-82
2022/11/28 21:21:39;;;;;;;81.87;40.07;;;2.80;84.30;;;;;;10484122;28;20203;-82
2022/11/28 21:27:00;;;;;;;75.43;35.17;;;2.80;85.80;;;;;;10503937;28;20199;-81
2022/11/28 21:32:22;;;;;;;71.10;35.33;;;2.80;90.40;;;;;;10503679;28;20535;-81
2022/11/28 21:37:43;;;;;;;78.10;37.17;;;2.80;77.70;;;;;;10511105;28;20203;-80
2022/11/28 21:43:04;;;;;;;73.77;35.00;;;2.80;90.20;;;;;;10506726;28;20238;-80
2022/11/28 21:48:28;;;;;;;71.63;35.53;;;2.80;92.60;;;;;;10492362;28;20200;-80
2022/11/28 21:53:50;;;;;;;72.10;33.63;;;2.80;79.80;;;;;;10480445;28;20486;-81
2022/11/28 21:59:11;;;;;;;74.50;34.63;;;2.80;64.30;;;;;;10524662;28;20187;-80
2022/11/28 22:04:32;;;;;;;68.57;32.40;;;2.90;46.50;;;;;;10466595;28;20229;-81
2022/11/28 22:09:54;;;;;;;65.00;32.33;;;2.80;29.00;;;;;;10524346;28;20262;-81
2022/11/28 22:15:15;;;;;;;71.10;33.53;;;2.80;36.50;;;;;;10503394;28;20537;-79
2022/11/28 22:20:36;;;;;;;73.07;34.40;;;2.80;28.70;;;;;;10475389;28;20428;-81
2022/11/28 22:26:01;;;;;;;76.30;33.87;;;2.80;21.10;;;;;;10479725;28;20226;-81
2022/11/28 22:31:23;;;;;;;67.90;33.60;;;2.80;19.30;;;;;;10508984;28;20371;-82
2022/11/28 22:36:44;;;;;;;79.67;34.90;;;2.80;11.70;;;;;;10490932;28;20495;-80
2022/11/28 22:42:05;;;;;;;75.40;34.87;;;2.90;21.10;;;;;;10479887;28;20264;-80
2022/11/28 22:47:26;;;;;;;72.67;33.30;;;2.80;12.40;;;;;;10522730;28;20237;-82
2022/11/28 22:52:47;;;;;;;77.47;33.23;;;2.90;1.00;;;;;;10452813;28;20367;-81
2022/11/28 22:58:09;;;;;;;78.50;35.50;;;2.80;11.00;;;;;;10480925;28;20221;-81
2022/11/28 23:03:30;;;;;;;69.87;34.00;;;2.80;5.00;;;;;;10486583;28;20290;-81
2022/11/28 23:08:52;;;;;;;73.53;34.73;;;2.80;18.50;;;;;;10507437;28;20540;-81
2022/11/28 23:14:14;;;;;;;80.80;37.33;;;2.80;17.40;;;;;;10506858;28;20195;-81
2022/11/28 23:19:35;;;;;;;77.80;36.57;;;2.90;8.10;;;;;;10489553;28;20231;-80
2022/11/28 23:24:57;;;;;;;75.30;35.80;;;2.90;1.00;;;;;;10479691;28;20212;-80
2022/11/28 23:30:18;;;;;;;74.60;34.73;;;2.80;1.00;;;;;;10451079;28;20222;-81
2022/11/28 23:35:39;;;;;;;68.73;32.43;;;2.90;1.00;;;;;;10461449;28;20367;-80
2022/11/28 23:41:00;;;;;;;73.37;31.17;;;2.80;1.00;;;;;;10479326;28;20344;-80
2022/11/28 23:46:23;;;;;;;62.67;30.50;;;2.80;1.00;;;;;;10481690;28;20422;-80
2022/11/28 23:51:44;;;;;;;66.00;30.43;;;2.80;1.00;;;;;;10485348;28;20204;-80
2022/11/28 23:57:06;;;;;;;65.03;29.83;;;2.80;1.00;;;;;;10467659;28;20275;-81
